sensor_id;sensor_type;location;lat;lon;timestamp;pressure;altitude;pressure_sealevel;temperature
62930;BMP280;49036;42.782;23.108;2023-02-04T00:00:49;93755.75;;;-1.40
62930;BMP280;49036;42.782;23.108;2023-02-04T00:03:15;93746.34;;;-1.39
62930;BMP280;49036;42.782;23.108;2023-02-04T00:05:42;93749.31;;;-1.37
62930;BMP280;49036;42.782;23.108;2023-02-04T00:08:08;93741.88;;;-1.37
62930;BMP280;49036;42.782;23.108;2023-02-04T00:10:34;93749.00;;;-1.34
62930;BMP280;49036;42.782;23.108;2023-02-04T00:13:00;93746.81;;;-1.35
62930;BMP280;49036;42.782;23.108;2023-02-04T00:15:26;93747.31;;;-1.37
62930;BMP280;49036;42.782;23.108;2023-02-04T00:17:52;93735.25;;;-1.41
62930;BMP280;49036;42.782;23.108;2023-02-04T00:20:18;93745.91;;;-1.43
62930;BMP280;49036;42.782;23.108;2023-02-04T00:22:44;93743.63;;;-1.39
62930;BMP280;49036;42.782;23.108;2023-02-04T00:25:10;93745.03;;;-1.33
62930;BMP280;49036;42.782;23.108;2023-02-04T00:27:36;93731.72;;;-1.31
62930;BMP280;49036;42.782;23.108;2023-02-04T00:30:05;93737.91;;;-1.36
62930;BMP280;49036;42.782;23.108;2023-02-04T00:32:31;93739.44;;;-1.40
62930;BMP280;49036;42.782;23.108;2023-02-04T00:34:57;93729.75;;;-1.36
62930;BMP280;49036;42.782;23.108;2023-02-04T00:37:23;93732.44;;;-1.30
62930;BMP280;49036;42.782;23.108;2023-02-04T00:39:48;93730.91;;;-1.25
62930;BMP280;49036;42.782;23.108;2023-02-04T00:42:14;93731.34;;;-1.21
62930;BMP280;49036;42.782;23.108;2023-02-04T00:44:40;93726.13;;;-1.19
62930;BMP280;49036;42.782;23.108;2023-02-04T00:47:05;93710.03;;;-1.17
62930;BMP280;49036;42.782;23.108;2023-02-04T00:49:32;93706.34;;;-1.20
62930;BMP280;49036;42.782;23.108;2023-02-04T00:51:58;93702.88;;;-1.20
62930;BMP280;49036;42.782;23.108;2023-02-04T00:54:24;93701.94;;;-1.23
62930;BMP280;49036;42.782;23.108;2023-02-04T00:56:50;93700.84;;;-1.14
62930;BMP280;49036;42.782;23.108;2023-02-04T00:59:15;93698.63;;;-1.16
62930;BMP280;49036;42.782;23.108;2023-02-04T01:01:41;93706.00;;;-1.11
62930;BMP280;49036;42.782;23.108;2023-02-04T01:04:06;93687.00;;;-1.16
62930;BMP280;49036;42.782;23.108;2023-02-04T01:06:32;93685.22;;;-1.14
62930;BMP280;49036;42.782;23.108;2023-02-04T01:08:58;93686.06;;;-1.19
62930;BMP280;49036;42.782;23.108;2023-02-04T01:11:23;93684.06;;;-1.18
62930;BMP280;49036;42.782;23.108;2023-02-04T01:13:49;93680.53;;;-1.13
62930;BMP280;49036;42.782;23.108;2023-02-04T01:16:14;93669.50;;;-1.02
62930;BMP280;49036;42.782;23.108;2023-02-04T01:18:40;93665.69;;;-0.93
62930;BMP280;49036;42.782;23.108;2023-02-04T01:21:06;93667.16;;;-0.92
62930;BMP280;49036;42.782;23.108;2023-02-04T01:23:31;93662.47;;;-0.73
62930;BMP280;49036;42.782;23.108;2023-02-04T01:25:57;93646.00;;;-0.67
62930;BMP280;49036;42.782;23.108;2023-02-04T01:28:24;93647.16;;;-0.63
62930;BMP280;49036;42.782;23.108;2023-02-04T01:30:49;93642.16;;;-0.59
62930;BMP280;49036;42.782;23.108;2023-02-04T01:33:15;93644.72;;;-0.48
62930;BMP280;49036;42.782;23.108;2023-02-04T01:35:40;93646.63;;;-0.42
62930;BMP280;49036;42.782;23.108;2023-02-04T01:38:06;93646.25;;;-0.33
62930;BMP280;49036;42.782;23.108;2023-02-04T01:40:31;93639.25;;;-0.29
62930;BMP280;49036;42.782;23.108;2023-02-04T01:42:57;93624.84;;;-0.29
62930;BMP280;49036;42.782;23.108;2023-02-04T01:45:23;93621.81;;;-0.26
62930;BMP280;49036;42.782;23.108;2023-02-04T01:47:48;93608.00;;;-0.28
62930;BMP280;49036;42.782;23.108;2023-02-04T01:50:16;93602.75;;;-0.26
62930;BMP280;49036;42.782;23.108;2023-02-04T01:52:43;93600.75;;;-0.25
62930;BMP280;49036;42.782;23.108;2023-02-04T01:55:21;93599.50;;;-0.24
62930;BMP280;49036;42.782;23.108;2023-02-04T01:57:49;93599.41;;;-0.19
62930;BMP280;49036;42.782;23.108;2023-02-04T02:00:27;93603.41;;;-0.20
62930;BMP280;49036;42.782;23.108;2023-02-04T02:02:54;93595.41;;;-0.18
62930;BMP280;49036;42.782;23.108;2023-02-04T02:05:23;93595.75;;;-0.21
62930;BMP280;49036;42.782;23.108;2023-02-04T02:07:52;93593.84;;;-0.26
62930;BMP280;49036;42.782;23.108;2023-02-04T02:10:18;93593.63;;;-0.28
62930;BMP280;49036;42.782;23.108;2023-02-04T02:12:44;93592.56;;;-0.25
62930;BMP280;49036;42.782;23.108;2023-02-04T02:15:11;93576.75;;;-0.27
62930;BMP280;49036;42.782;23.108;2023-02-04T02:17:38;93572.31;;;-0.30
62930;BMP280;49036;42.782;23.108;2023-02-04T02:20:09;93556.50;;;-0.31
62930;BMP280;49036;42.782;23.108;2023-02-04T02:25:22;93531.00;;;-0.47
62930;BMP280;49036;42.782;23.108;2023-02-04T02:27:48;93526.81;;;-0.48
62930;BMP280;49036;42.782;23.108;2023-02-04T02:30:14;93526.28;;;-0.47
62930;BMP280;49036;42.782;23.108;2023-02-04T02:32:47;93515.38;;;-0.47
62930;BMP280;49036;42.782;23.108;2023-02-04T02:35:14;93523.31;;;-0.49
62930;BMP280;49036;42.782;23.108;2023-02-04T02:37:40;93523.78;;;-0.45
62930;BMP280;49036;42.782;23.108;2023-02-04T02:40:06;93512.75;;;-0.52
62930;BMP280;49036;42.782;23.108;2023-02-04T02:42:32;93506.25;;;-0.49
62930;BMP280;49036;42.782;23.108;2023-02-04T02:44:59;93498.59;;;-0.51
62930;BMP280;49036;42.782;23.108;2023-02-04T02:47:25;93497.13;;;-0.52
62930;BMP280;49036;42.782;23.108;2023-02-04T02:49:53;93484.69;;;-0.34
62930;BMP280;49036;42.782;23.108;2023-02-04T02:52:19;93491.81;;;-0.31
62930;BMP280;49036;42.782;23.108;2023-02-04T02:54:45;93483.44;;;-0.33
62930;BMP280;49036;42.782;23.108;2023-02-04T02:57:29;93485.44;;;-0.20
62930;BMP280;49036;42.782;23.108;2023-02-04T02:59:55;93477.56;;;-0.10
62930;BMP280;49036;42.782;23.108;2023-02-04T03:02:22;93474.72;;;-0.05
62930;BMP280;49036;42.782;23.108;2023-02-04T03:04:52;93479.53;;;0.02
62930;BMP280;49036;42.782;23.108;2023-02-04T03:07:19;93480.59;;;-0.01
62930;BMP280;49036;42.782;23.108;2023-02-04T03:09:45;93490.03;;;-0.02
62930;BMP280;49036;42.782;23.108;2023-02-04T03:12:11;93465.50;;;0.12
62930;BMP280;49036;42.782;23.108;2023-02-04T03:14:37;93457.50;;;0.14
62930;BMP280;49036;42.782;23.108;2023-02-04T03:17:05;93467.66;;;0.26
62930;BMP280;49036;42.782;23.108;2023-02-04T03:19:32;93468.50;;;0.21
62930;BMP280;49036;42.782;23.108;2023-02-04T03:21:58;93462.56;;;0.09
62930;BMP280;49036;42.782;23.108;2023-02-04T03:24:24;93455.72;;;0.16
62930;BMP280;49036;42.782;23.108;2023-02-04T03:26:50;93482.38;;;0.10
62930;BMP280;49036;42.782;23.108;2023-02-04T03:29:16;93473.03;;;0.19
62930;BMP280;49036;42.782;23.108;2023-02-04T03:31:42;93458.75;;;0.13
62930;BMP280;49036;42.782;23.108;2023-02-04T03:34:07;93462.75;;;0.12
62930;BMP280;49036;42.782;23.108;2023-02-04T03:36:33;93455.72;;;0.16
62930;BMP280;49036;42.782;23.108;2023-02-04T03:38:59;93464.22;;;0.13
62930;BMP280;49036;42.782;23.108;2023-02-04T03:41:24;93452.69;;;0.06
62930;BMP280;49036;42.782;23.108;2023-02-04T03:43:50;93467.38;;;0.03
62930;BMP280;49036;42.782;23.108;2023-02-04T03:46:15;93460.66;;;0.04
62930;BMP280;49036;42.782;23.108;2023-02-04T03:48:41;93458.78;;;-0.01
62930;BMP280;49036;42.782;23.108;2023-02-04T03:51:06;93455.44;;;-0.07
62930;BMP280;49036;42.782;23.108;2023-02-04T03:53:32;93451.25;;;-0.08
62930;BMP280;49036;42.782;23.108;2023-02-04T03:55:57;93448.72;;;-0.19
62930;BMP280;49036;42.782;23.108;2023-02-04T03:58:23;93432.91;;;-0.21
62930;BMP280;49036;42.782;23.108;2023-02-04T04:00:48;93427.75;;;-0.24
62930;BMP280;49036;42.782;23.108;2023-02-04T04:03:14;93418.94;;;-0.30
62930;BMP280;49036;42.782;23.108;2023-02-04T04:05:40;93422.41;;;-0.30
62930;BMP280;49036;42.782;23.108;2023-02-04T04:08:05;93418.63;;;-0.27
62930;BMP280;49036;42.782;23.108;2023-02-04T04:10:31;93418.84;;;-0.25
62930;BMP280;49036;42.782;23.108;2023-02-04T04:12:57;93414.03;;;-0.32
62930;BMP280;49036;42.782;23.108;2023-02-04T04:15:24;93412.22;;;-0.29
62930;BMP280;49036;42.782;23.108;2023-02-04T04:17:49;93424.81;;;-0.26
62930;BMP280;49036;42.782;23.108;2023-02-04T04:20:15;93433.84;;;-0.31
62930;BMP280;49036;42.782;23.108;2023-02-04T04:22:41;93417.09;;;-0.35
62930;BMP280;49036;42.782;23.108;2023-02-04T04:25:07;93425.25;;;-0.22
62930;BMP280;49036;42.782;23.108;2023-02-04T04:27:33;93429.44;;;-0.21
62930;BMP280;49036;42.782;23.108;2023-02-04T04:29:58;93437.81;;;-0.19
62930;BMP280;49036;42.782;23.108;2023-02-04T04:32:24;93421.25;;;-0.21
62930;BMP280;49036;42.782;23.108;2023-02-04T04:34:49;93423.75;;;-0.23
62930;BMP280;49036;42.782;23.108;2023-02-04T04:37:15;93427.00;;;-0.25
62930;BMP280;49036;42.782;23.108;2023-02-04T04:39:40;93446.84;;;-0.24
62930;BMP280;49036;42.782;23.108;2023-02-04T04:42:06;93449.66;;;-0.30
62930;BMP280;49036;42.782;23.108;2023-02-04T04:44:31;93434.78;;;-0.42
62930;BMP280;49036;42.782;23.108;2023-02-04T04:46:57;93428.91;;;-0.46
62930;BMP280;49036;42.782;23.108;2023-02-04T04:49:23;93445.38;;;-0.52
62930;BMP280;49036;42.782;23.108;2023-02-04T04:51:48;93462.88;;;-0.60
62930;BMP280;49036;42.782;23.108;2023-02-04T04:54:14;93455.09;;;-0.56
62930;BMP280;49036;42.782;23.108;2023-02-04T04:56:39;93447.44;;;-0.58
62930;BMP280;49036;42.782;23.108;2023-02-04T04:59:05;93450.19;;;-0.58
62930;BMP280;49036;42.782;23.108;2023-02-04T05:01:31;93449.53;;;-0.64
62930;BMP280;49036;42.782;23.108;2023-02-04T05:03:57;93474.38;;;-0.67
62930;BMP280;49036;42.782;23.108;2023-02-04T05:06:22;93483.50;;;-0.65
62930;BMP280;49036;42.782;23.108;2023-02-04T05:08:53;93488.84;;;-0.59
62930;BMP280;49036;42.782;23.108;2023-02-04T05:11:19;93489.69;;;-0.51
62930;BMP280;49036;42.782;23.108;2023-02-04T05:13:45;93498.63;;;-0.37
62930;BMP280;49036;42.782;23.108;2023-02-04T05:16:10;93490.69;;;-0.22
62930;BMP280;49036;42.782;23.108;2023-02-04T05:18:37;93501.78;;;-0.20
62930;BMP280;49036;42.782;23.108;2023-02-04T05:21:02;93508.50;;;-0.08
62930;BMP280;49036;42.782;23.108;2023-02-04T05:23:28;93503.34;;;-0.11
62930;BMP280;49036;42.782;23.108;2023-02-04T05:25:53;93505.78;;;-0.08
62930;BMP280;49036;42.782;23.108;2023-02-04T05:28:19;93499.25;;;-0.05
62930;BMP280;49036;42.782;23.108;2023-02-04T05:30:48;93485.13;;;-0.03
62930;BMP280;49036;42.782;23.108;2023-02-04T05:33:13;93493.91;;;0.03
62930;BMP280;49036;42.782;23.108;2023-02-04T05:35:39;93487.53;;;0.00
62930;BMP280;49036;42.782;23.108;2023-02-04T05:38:04;93484.59;;;-0.02
62930;BMP280;49036;42.782;23.108;2023-02-04T05:40:30;93484.91;;;-0.05
62930;BMP280;49036;42.782;23.108;2023-02-04T05:42:56;93488.34;;;-0.05
62930;BMP280;49036;42.782;23.108;2023-02-04T05:45:21;93495.69;;;0.00
62930;BMP280;49036;42.782;23.108;2023-02-04T05:47:47;93504.31;;;-0.09
62930;BMP280;49036;42.782;23.108;2023-02-04T05:50:12;93504.94;;;-0.03
62930;BMP280;49036;42.782;23.108;2023-02-04T05:52:38;93502.72;;;-0.04
62930;BMP280;49036;42.782;23.108;2023-02-04T05:55:05;93507.66;;;-0.03
62930;BMP280;49036;42.782;23.108;2023-02-04T05:57:30;93503.88;;;0.00
62930;BMP280;49036;42.782;23.108;2023-02-04T05:59:56;93491.41;;;0.05
62930;BMP280;49036;42.782;23.108;2023-02-04T06:02:22;93495.69;;;0.14
62930;BMP280;49036;42.782;23.108;2023-02-04T06:04:47;93491.28;;;0.24
62930;BMP280;49036;42.782;23.108;2023-02-04T06:07:13;93490.09;;;0.32
62930;BMP280;49036;42.782;23.108;2023-02-04T06:09:38;93487.84;;;0.44
62930;BMP280;49036;42.782;23.108;2023-02-04T06:12:04;93483.88;;;0.45
62930;BMP280;49036;42.782;23.108;2023-02-04T06:14:29;93507.38;;;0.48
62930;BMP280;49036;42.782;23.108;2023-02-04T06:16:55;93495.09;;;0.55
62930;BMP280;49036;42.782;23.108;2023-02-04T06:19:20;93493.81;;;0.56
62930;BMP280;49036;42.782;23.108;2023-02-04T06:21:46;93485.50;;;0.61
62930;BMP280;49036;42.782;23.108;2023-02-04T06:24:11;93497.16;;;0.62
62930;BMP280;49036;42.782;23.108;2023-02-04T06:26:40;93486.56;;;0.58
62930;BMP280;49036;42.782;23.108;2023-02-04T06:29:05;93496.56;;;0.56
62930;BMP280;49036;42.782;23.108;2023-02-04T06:31:31;93484.88;;;0.69
62930;BMP280;49036;42.782;23.108;2023-02-04T06:33:56;93482.41;;;0.78
62930;BMP280;49036;42.782;23.108;2023-02-04T06:36:22;93487.25;;;0.72
62930;BMP280;49036;42.782;23.108;2023-02-04T06:38:47;93486.22;;;0.75
62930;BMP280;49036;42.782;23.108;2023-02-04T06:41:13;93498.28;;;1.01
62930;BMP280;49036;42.782;23.108;2023-02-04T06:43:38;93489.44;;;1.36
62930;BMP280;49036;42.782;23.108;2023-02-04T06:46:04;93485.56;;;1.53
62930;BMP280;49036;42.782;23.108;2023-02-04T06:48:30;93475.78;;;1.36
62930;BMP280;49036;42.782;23.108;2023-02-04T06:50:55;93476.63;;;1.31
62930;BMP280;49036;42.782;23.108;2023-02-04T06:53:21;93467.44;;;1.42
62930;BMP280;49036;42.782;23.108;2023-02-04T06:55:46;93467.44;;;1.42
62930;BMP280;49036;42.782;23.108;2023-02-04T06:58:12;93460.31;;;1.39
62930;BMP280;49036;42.782;23.108;2023-02-04T07:00:37;93468.91;;;1.43
62930;BMP280;49036;42.782;23.108;2023-02-04T07:03:03;93473.59;;;1.63
62930;BMP280;49036;42.782;23.108;2023-02-04T07:05:28;93471.50;;;1.77
62930;BMP280;49036;42.782;23.108;2023-02-04T07:07:54;93477.34;;;1.81
62930;BMP280;49036;42.782;23.108;2023-02-04T07:10:20;93473.47;;;1.76
62930;BMP280;49036;42.782;23.108;2023-02-04T07:12:46;93471.72;;;1.87
62930;BMP280;49036;42.782;23.108;2023-02-04T07:15:12;93478.66;;;1.88
62930;BMP280;49036;42.782;23.108;2023-02-04T07:17:37;93474.53;;;2.02
62930;BMP280;49036;42.782;23.108;2023-02-04T07:20:03;93465.88;;;2.19
62930;BMP280;49036;42.782;23.108;2023-02-04T07:22:29;93462.63;;;2.36
62930;BMP280;49036;42.782;23.108;2023-02-04T07:24:54;93458.22;;;2.32
62930;BMP280;49036;42.782;23.108;2023-02-04T07:27:20;93464.13;;;2.52
62930;BMP280;49036;42.782;23.108;2023-02-04T07:29:45;93461.38;;;2.44
62930;BMP280;49036;42.782;23.108;2023-02-04T07:32:11;93456.78;;;2.39
62930;BMP280;49036;42.782;23.108;2023-02-04T07:34:36;93460.41;;;2.34
62930;BMP280;49036;42.782;23.108;2023-02-04T07:37:02;93452.78;;;2.40
62930;BMP280;49036;42.782;23.108;2023-02-04T07:39:27;93456.78;;;2.31
62930;BMP280;49036;42.782;23.108;2023-02-04T07:41:53;93455.84;;;2.29
62930;BMP280;49036;42.782;23.108;2023-02-04T07:44:18;93459.63;;;2.11
62930;BMP280;49036;42.782;23.108;2023-02-04T07:46:44;93469.50;;;2.21
62930;BMP280;49036;42.782;23.108;2023-02-04T07:49:09;93467.63;;;2.09
62930;BMP280;49036;42.782;23.108;2023-02-04T07:51:35;93470.19;;;2.07
62930;BMP280;49036;42.782;23.108;2023-02-04T07:54:01;93473.34;;;2.18
62930;BMP280;49036;42.782;23.108;2023-02-04T07:56:26;93475.25;;;2.02
62930;BMP280;49036;42.782;23.108;2023-02-04T07:58:52;93492.16;;;1.86
62930;BMP280;49036;42.782;23.108;2023-02-04T08:01:17;93480.63;;;1.80
62930;BMP280;49036;42.782;23.108;2023-02-04T08:03:43;93495.50;;;1.99
62930;BMP280;49036;42.782;23.108;2023-02-04T08:06:09;93479.69;;;2.13
62930;BMP280;49036;42.782;23.108;2023-02-04T08:08:34;93486.59;;;2.07
62930;BMP280;49036;42.782;23.108;2023-02-04T08:11:00;93490.03;;;1.99
62930;BMP280;49036;42.782;23.108;2023-02-04T08:13:25;93487.69;;;2.03
62930;BMP280;49036;42.782;23.108;2023-02-04T08:15:51;93477.66;;;2.06
62930;BMP280;49036;42.782;23.108;2023-02-04T08:18:16;93472.06;;;2.19
62930;BMP280;49036;42.782;23.108;2023-02-04T08:20:42;93469.84;;;2.10
62930;BMP280;49036;42.782;23.108;2023-02-04T08:23:08;93470.19;;;2.07
62930;BMP280;49036;42.782;23.108;2023-02-04T08:25:33;93467.41;;;1.99
62930;BMP280;49036;42.782;23.108;2023-02-04T08:27:59;93463.00;;;1.96
62930;BMP280;49036;42.782;23.108;2023-02-04T08:30:25;93464.94;;;1.80
62930;BMP280;49036;42.782;23.108;2023-02-04T08:32:50;93471.66;;;1.71
62930;BMP280;49036;42.782;23.108;2023-02-04T08:35:16;93461.03;;;1.60
62930;BMP280;49036;42.782;23.108;2023-02-04T08:37:41;93469.16;;;1.53
62930;BMP280;49036;42.782;23.108;2023-02-04T08:40:07;93462.50;;;1.40
62930;BMP280;49036;42.782;23.108;2023-02-04T08:42:33;93460.09;;;1.37
62930;BMP280;49036;42.782;23.108;2023-02-04T08:44:59;93461.44;;;1.43
62930;BMP280;49036;42.782;23.108;2023-02-04T08:47:24;93459.09;;;1.47
62930;BMP280;49036;42.782;23.108;2023-02-04T08:49:50;93447.88;;;1.59
62930;BMP280;49036;42.782;23.108;2023-02-04T08:52:15;93463.97;;;1.70
62930;BMP280;49036;42.782;23.108;2023-02-04T08:54:41;93465.50;;;1.79
62930;BMP280;49036;42.782;23.108;2023-02-04T08:57:07;93460.56;;;1.77
62930;BMP280;49036;42.782;23.108;2023-02-04T08:59:32;93451.66;;;1.84
62930;BMP280;49036;42.782;23.108;2023-02-04T09:01:58;93444.19;;;1.85
62930;BMP280;49036;42.782;23.108;2023-02-04T09:04:23;93454.19;;;1.82
62930;BMP280;49036;42.782;23.108;2023-02-04T09:06:50;93447.88;;;1.95
62930;BMP280;49036;42.782;23.108;2023-02-04T09:09:16;93453.91;;;1.93
62930;BMP280;49036;42.782;23.108;2023-02-04T09:11:42;93456.09;;;2.02
62930;BMP280;49036;42.782;23.108;2023-02-04T09:14:08;93455.72;;;1.98
62930;BMP280;49036;42.782;23.108;2023-02-04T09:16:33;93450.63;;;1.95
62930;BMP280;49036;42.782;23.108;2023-02-04T09:18:59;93451.53;;;1.97
62930;BMP280;49036;42.782;23.108;2023-02-04T09:21:26;93457.88;;;1.85
62930;BMP280;49036;42.782;23.108;2023-02-04T09:23:52;93457.53;;;1.96
62930;BMP280;49036;42.782;23.108;2023-02-04T09:26:17;93454.63;;;2.01
62930;BMP280;49036;42.782;23.108;2023-02-04T09:28:43;93457.97;;;2.08
62930;BMP280;49036;42.782;23.108;2023-02-04T09:31:08;93448.47;;;2.09
62930;BMP280;49036;42.782;23.108;2023-02-04T09:33:35;93450.44;;;2.00
62930;BMP280;49036;42.782;23.108;2023-02-04T09:36:00;93455.53;;;1.96
62930;BMP280;49036;42.782;23.108;2023-02-04T09:38:26;93444.78;;;1.91
62930;BMP280;49036;42.782;23.108;2023-02-04T09:40:58;93452.63;;;1.94
62930;BMP280;49036;42.782;23.108;2023-02-04T09:43:28;93445.09;;;1.87
62930;BMP280;49036;42.782;23.108;2023-02-04T09:45:55;93437.44;;;1.86
62930;BMP280;49036;42.782;23.108;2023-02-04T09:48:22;93440.72;;;1.84
62930;BMP280;49036;42.782;23.108;2023-02-04T09:50:49;93440.53;;;1.82
62930;BMP280;49036;42.782;23.108;2023-02-04T09:53:20;93438.88;;;1.79
62930;BMP280;49036;42.782;23.108;2023-02-04T09:55:49;93442.84;;;1.70
62930;BMP280;49036;42.782;23.108;2023-02-04T09:58:20;93448.22;;;1.55
62930;BMP280;49036;42.782;23.108;2023-02-04T10:00:58;93439.16;;;1.60
62930;BMP280;49036;42.782;23.108;2023-02-04T10:03:24;93437.50;;;1.29
62930;BMP280;49036;42.782;23.108;2023-02-04T10:05:50;93435.50;;;1.08
62930;BMP280;49036;42.782;23.108;2023-02-04T10:08:26;93439.56;;;0.94
62930;BMP280;49036;42.782;23.108;2023-02-04T10:10:53;93430.25;;;0.89
62930;BMP280;49036;42.782;23.108;2023-02-04T10:13:20;93426.31;;;0.77
62930;BMP280;49036;42.782;23.108;2023-02-04T10:15:47;93423.19;;;0.73
62930;BMP280;49036;42.782;23.108;2023-02-04T10:18:32;93427.84;;;0.65
62930;BMP280;49036;42.782;23.108;2023-02-04T10:23:46;93419.34;;;0.69
62930;BMP280;49036;42.782;23.108;2023-02-04T10:26:13;93407.41;;;0.79
62930;BMP280;49036;42.782;23.108;2023-02-04T10:28:39;93413.31;;;0.91
62930;BMP280;49036;42.782;23.108;2023-02-04T10:31:09;93412.44;;;0.96
62930;BMP280;49036;42.782;23.108;2023-02-04T10:34:01;93408.31;;;1.03
62930;BMP280;49036;42.782;23.108;2023-02-04T10:36:28;93412.69;;;1.06
62930;BMP280;49036;42.782;23.108;2023-02-04T10:41:27;93408.56;;;1.12
62930;BMP280;49036;42.782;23.108;2023-02-04T10:44:08;93407.56;;;1.23
62930;BMP280;49036;42.782;23.108;2023-02-04T10:46:34;93406.97;;;1.17
62930;BMP280;49036;42.782;23.108;2023-02-04T10:49:23;93398.22;;;1.18
62930;BMP280;49036;42.782;23.108;2023-02-04T10:51:49;93401.19;;;1.20
62930;BMP280;49036;42.782;23.108;2023-02-04T10:54:18;93390.97;;;1.21
62930;BMP280;49036;42.782;23.108;2023-02-04T10:57:18;93394.13;;;1.04
62930;BMP280;49036;42.782;23.108;2023-02-04T10:59:47;93398.97;;;0.98
62930;BMP280;49036;42.782;23.108;2023-02-04T11:02:37;93395.16;;;0.93
62930;BMP280;49036;42.782;23.108;2023-02-04T11:05:13;93387.25;;;0.82
62930;BMP280;49036;42.782;23.108;2023-02-04T11:07:39;93392.78;;;0.69
62930;BMP280;49036;42.782;23.108;2023-02-04T11:10:05;93393.31;;;0.68
62930;BMP280;49036;42.782;23.108;2023-02-04T11:12:43;93383.44;;;0.64
62930;BMP280;49036;42.782;23.108;2023-02-04T11:15:47;93382.63;;;0.77
62930;BMP280;49036;42.782;23.108;2023-02-04T11:20:44;93385.03;;;0.81
62930;BMP280;49036;42.782;23.108;2023-02-04T11:23:29;93383.97;;;0.84
62930;BMP280;49036;42.782;23.108;2023-02-04T11:36:30;93371.91;;;1.36
62930;BMP280;49036;42.782;23.108;2023-02-04T11:38:55;93371.00;;;1.34
62930;BMP280;49036;42.782;23.108;2023-02-04T11:41:27;93361.56;;;1.42
62930;BMP280;49036;42.782;23.108;2023-02-04T11:43:54;93364.06;;;1.33
62930;BMP280;49036;42.782;23.108;2023-02-04T11:46:21;93356.78;;;1.35
62930;BMP280;49036;42.782;23.108;2023-02-04T11:48:52;93348.44;;;1.41
62930;BMP280;49036;42.782;23.108;2023-02-04T11:51:20;93351.66;;;1.60
62930;BMP280;49036;42.782;23.108;2023-02-04T11:53:51;93344.50;;;1.57
62930;BMP280;49036;42.782;23.108;2023-02-04T11:56:20;93338.72;;;1.61
62930;BMP280;49036;42.782;23.108;2023-02-04T11:58:47;93342.34;;;1.63
62930;BMP280;49036;42.782;23.108;2023-02-04T12:01:18;93342.72;;;1.67
62930;BMP280;49036;42.782;23.108;2023-02-04T12:03:47;93331.25;;;1.76
62930;BMP280;49036;42.782;23.108;2023-02-04T12:06:21;93338.09;;;1.91
62930;BMP280;49036;42.782;23.108;2023-02-04T12:08:46;93335.53;;;2.00
62930;BMP280;49036;42.782;23.108;2023-02-04T12:11:24;93339.94;;;2.03
62930;BMP280;49036;42.782;23.108;2023-02-04T12:13:56;93332.47;;;2.04
62930;BMP280;49036;42.782;23.108;2023-02-04T12:16:23;93332.03;;;1.77
62930;BMP280;49036;42.782;23.108;2023-02-04T12:18:49;93338.44;;;1.95
62930;BMP280;49036;42.782;23.108;2023-02-04T12:21:16;93329.38;;;2.15
62930;BMP280;49036;42.782;23.108;2023-02-04T12:23:43;93335.78;;;2.33
62930;BMP280;49036;42.782;23.108;2023-02-04T12:26:09;93329.75;;;2.50
62930;BMP280;49036;42.782;23.108;2023-02-04T12:28:34;93323.94;;;2.61
62930;BMP280;49036;42.782;23.108;2023-02-04T12:31:00;93322.13;;;2.48
62930;BMP280;49036;42.782;23.108;2023-02-04T12:33:25;93335.44;;;2.37
62930;BMP280;49036;42.782;23.108;2023-02-04T12:35:51;93319.75;;;2.45
62930;BMP280;49036;42.782;23.108;2023-02-04T12:38:18;93325.56;;;2.33
62930;BMP280;49036;42.782;23.108;2023-02-04T12:40:43;93330.50;;;2.35
62930;BMP280;49036;42.782;23.108;2023-02-04T12:43:09;93334.88;;;2.30
62930;BMP280;49036;42.782;23.108;2023-02-04T12:45:35;93325.53;;;2.03
62930;BMP280;49036;42.782;23.108;2023-02-04T12:48:02;93331.88;;;1.90
62930;BMP280;49036;42.782;23.108;2023-02-04T12:50:27;93327.28;;;1.78
62930;BMP280;49036;42.782;23.108;2023-02-04T12:52:55;93337.13;;;1.81
62930;BMP280;49036;42.782;23.108;2023-02-04T12:55:22;93342.06;;;1.82
62930;BMP280;49036;42.782;23.108;2023-02-04T12:57:47;93341.31;;;1.82
62930;BMP280;49036;42.782;23.108;2023-02-04T13:00:14;93327.47;;;1.80
62930;BMP280;49036;42.782;23.108;2023-02-04T13:02:40;93334.38;;;1.81
62930;BMP280;49036;42.782;23.108;2023-02-04T13:05:07;93329.22;;;1.69
62930;BMP280;49036;42.782;23.108;2023-02-04T13:07:33;93327.63;;;1.74
62930;BMP280;49036;42.782;23.108;2023-02-04T13:09:59;93331.09;;;1.74
62930;BMP280;49036;42.782;23.108;2023-02-04T13:12:24;93323.25;;;1.71
62930;BMP280;49036;42.782;23.108;2023-02-04T13:14:50;93327.59;;;1.66
62930;BMP280;49036;42.782;23.108;2023-02-04T13:17:16;93342.72;;;1.60
62930;BMP280;49036;42.782;23.108;2023-02-04T13:19:42;93338.72;;;1.61
62930;BMP280;49036;42.782;23.108;2023-02-04T13:22:07;93338.69;;;1.53
62930;BMP280;49036;42.782;23.108;2023-02-04T13:24:33;93343.06;;;1.56
62930;BMP280;49036;42.782;23.108;2023-02-04T13:26:58;93349.22;;;1.49
62930;BMP280;49036;42.782;23.108;2023-02-04T13:29:24;93343.75;;;1.49
62930;BMP280;49036;42.782;23.108;2023-02-04T13:31:49;93341.75;;;1.49
62930;BMP280;49036;42.782;23.108;2023-02-04T13:34:16;93342.53;;;1.65
62930;BMP280;49036;42.782;23.108;2023-02-04T13:36:41;93342.91;;;1.69
62930;BMP280;49036;42.782;23.108;2023-02-04T13:39:08;93339.31;;;1.82
62930;BMP280;49036;42.782;23.108;2023-02-04T13:41:34;93345.75;;;1.92
62930;BMP280;49036;42.782;23.108;2023-02-04T13:44:00;93344.63;;;1.88
62930;BMP280;49036;42.782;23.108;2023-02-04T13:46:26;93336.25;;;2.01
62930;BMP280;49036;42.782;23.108;2023-02-04T13:48:52;93351.59;;;2.04
62930;BMP280;49036;42.782;23.108;2023-02-04T13:51:17;93351.97;;;2.08
62930;BMP280;49036;42.782;23.108;2023-02-04T13:53:43;93343.97;;;2.10
62930;BMP280;49036;42.782;23.108;2023-02-04T13:56:08;93354.53;;;2.06
62930;BMP280;49036;42.782;23.108;2023-02-04T13:58:35;93350.91;;;2.11
62930;BMP280;49036;42.782;23.108;2023-02-04T14:01:00;93367.69;;;2.15
62930;BMP280;49036;42.782;23.108;2023-02-04T14:03:27;93365.81;;;2.02
62930;BMP280;49036;42.782;23.108;2023-02-04T14:05:53;93379.72;;;1.61
62930;BMP280;49036;42.782;23.108;2023-02-04T14:08:20;93409.31;;;0.92
62930;BMP280;49036;42.782;23.108;2023-02-04T14:10:45;93405.66;;;0.14
62930;BMP280;49036;42.782;23.108;2023-02-04T14:13:11;93419.53;;;0.02
62930;BMP280;49036;42.782;23.108;2023-02-04T14:15:36;93422.25;;;0.02
62930;BMP280;49036;42.782;23.108;2023-02-04T14:18:03;93409.91;;;0.01
62930;BMP280;49036;42.782;23.108;2023-02-04T14:20:30;93405.81;;;-0.05
62930;BMP280;49036;42.782;23.108;2023-02-04T14:22:55;93401.94;;;0.03